createdAt,value
2023-01-17T00:02:24.293Z,4.80
2023-01-17T00:05:10.727Z,5.20
2023-01-17T00:07:56.627Z,4.50
2023-01-17T00:10:27.021Z,4.90
2023-01-17T00:13:06.195Z,6.50
2023-01-17T00:15:37.274Z,7.20
2023-01-17T00:18:04.731Z,3.60
2023-01-17T00:20:51.836Z,4.40
2023-01-17T00:23:44.651Z,6.10
2023-01-17T00:26:17.438Z,4.40
2023-01-17T00:28:45.855Z,7.10
2023-01-17T00:31:14.967Z,5.70
2023-01-17T00:33:42.943Z,3.90
2023-01-17T00:36:11.353Z,4.40
2023-01-17T00:38:40.110Z,5.20
2023-01-17T00:41:13.456Z,5.00
2023-01-17T00:44:00.212Z,3.60
2023-01-17T00:46:46.678Z,4.90
2023-01-17T00:49:32.473Z,3.70
2023-01-17T00:52:20.592Z,3.70
2023-01-17T00:55:07.403Z,5.10
2023-01-17T00:57:53.316Z,5.00
2023-01-17T01:00:40.223Z,4.10
2023-01-17T01:03:30.237Z,4.70
2023-01-17T01:06:16.564Z,3.40
2023-01-17T01:09:02.929Z,5.40
2023-01-17T01:11:48.910Z,4.90
2023-01-17T01:14:36.040Z,3.00
2023-01-17T01:17:24.201Z,4.40
2023-01-17T01:20:10.428Z,5.10
2023-01-17T01:22:56.256Z,3.30
2023-01-17T01:25:42.965Z,4.40
2023-01-17T01:28:32.012Z,5.00
2023-01-17T01:31:19.029Z,2.90
2023-01-17T01:33:46.633Z,3.10
2023-01-17T01:36:14.229Z,3.00
2023-01-17T01:38:44.569Z,4.60
2023-01-17T01:41:12.264Z,2.80
2023-01-17T01:43:52.142Z,3.00
2023-01-17T01:46:36.843Z,4.80
2023-01-17T01:49:24.806Z,2.90
2023-01-17T01:52:00.733Z,4.30
2023-01-17T01:54:36.739Z,2.30
2023-01-17T01:57:09.715Z,2.90
2023-01-17T01:59:41.659Z,4.80
2023-01-17T02:02:10.597Z,1.30
2023-01-17T02:04:38.514Z,2.20
2023-01-17T02:07:13.826Z,4.90
2023-01-17T02:09:41.571Z,3.10
2023-01-17T02:12:10.023Z,4.80
2023-01-17T02:14:39.377Z,4.20
2023-01-17T02:17:55.727Z,2.90
2023-01-17T02:20:26.058Z,3.20
2023-01-17T02:23:20.093Z,3.00
2023-01-17T02:26:12.395Z,3.10
2023-01-17T02:28:56.276Z,3.10
2023-01-17T02:31:28.096Z,4.70
2023-01-17T02:34:31.324Z,3.50
2023-01-17T02:37:05.437Z,3.10
2023-01-17T02:39:39.460Z,3.10
2023-01-17T02:42:14.586Z,2.70
2023-01-17T02:44:44.169Z,5.50
2023-01-17T02:47:29.272Z,4.70
2023-01-17T02:50:07.629Z,4.30
2023-01-17T02:53:06.110Z,3.00
2023-01-17T02:56:06.093Z,2.90
2023-01-17T02:58:58.631Z,2.70
2023-01-17T03:01:50.820Z,2.60
2023-01-17T03:04:25.321Z,2.60
2023-01-17T03:06:59.292Z,3.10
2023-01-17T03:09:30.041Z,4.10
2023-01-17T03:11:59.280Z,4.50
2023-01-17T03:14:27.050Z,3.30
2023-01-17T03:16:54.890Z,3.80
2023-01-17T03:19:23.698Z,3.90
2023-01-17T03:21:51.234Z,2.50
2023-01-17T03:24:18.896Z,3.40
2023-01-17T03:26:48.987Z,4.00
2023-01-17T03:29:16.769Z,4.00
2023-01-17T03:31:44.595Z,4.50
2023-01-17T03:34:12.761Z,3.80
2023-01-17T03:36:40.580Z,2.30
2023-01-17T03:39:08.606Z,0.60
2023-01-17T03:41:38.561Z,2.30
2023-01-17T03:44:08.756Z,4.10
2023-01-17T03:46:36.862Z,2.50
2023-01-17T03:49:04.638Z,3.10
2023-01-17T03:51:32.312Z,2.40
2023-01-17T03:54:00.032Z,3.60
2023-01-17T03:56:27.840Z,2.30
2023-01-17T03:58:58.643Z,2.80
2023-01-17T04:01:29.684Z,4.00
2023-01-17T04:03:57.469Z,2.90
2023-01-17T04:06:25.140Z,4.50
2023-01-17T04:08:53.207Z,2.60
2023-01-17T04:11:20.970Z,1.90
2023-01-17T04:13:48.592Z,4.00
2023-01-17T04:16:18.362Z,2.20
2023-01-17T04:18:46.034Z,2.10
2023-01-17T04:21:14.593Z,1.30
2023-01-17T04:23:42.203Z,2.30
2023-01-17T04:26:12.571Z,4.20
2023-01-17T04:28:40.440Z,3.60
2023-01-17T04:31:09.400Z,2.60
2023-01-17T04:33:36.967Z,2.20
2023-01-17T04:36:04.856Z,3.50
2023-01-17T04:38:32.515Z,3.20
2023-01-17T04:41:01.414Z,2.50
2023-01-17T04:43:29.076Z,3.30
2023-01-17T04:45:57.673Z,2.60
2023-01-17T04:48:26.147Z,0.80
2023-01-17T04:51:02.700Z,3.50
2023-01-17T04:53:30.608Z,2.70
2023-01-17T04:55:58.523Z,2.00
2023-01-17T04:58:26.568Z,2.00
2023-01-17T05:00:54.988Z,3.90
2023-01-17T05:03:23.508Z,3.10
2023-01-17T05:05:51.146Z,1.70
2023-01-17T05:08:18.758Z,0.50
2023-01-17T05:10:48.405Z,2.10
2023-01-17T05:13:18.109Z,0.30
2023-01-17T05:15:46.810Z,2.00
2023-01-17T05:18:16.535Z,1.90
2023-01-17T05:20:44.500Z,2.20
2023-01-17T05:23:12.626Z,4.20
2023-01-17T05:25:44.401Z,2.50
2023-01-17T05:28:13.616Z,3.40
2023-01-17T05:30:43.672Z,3.70
2023-01-17T05:33:11.484Z,4.20
2023-01-17T05:35:39.320Z,1.70
2023-01-17T05:38:06.889Z,0.60
2023-01-17T05:40:34.863Z,4.10
2023-01-17T05:43:03.886Z,3.30
2023-01-17T05:45:33.389Z,2.80
2023-01-17T05:48:01.660Z,3.20
2023-01-17T05:50:32.256Z,1.90
2023-01-17T05:53:12.001Z,3.40
2023-01-17T05:55:40.657Z,1.90
2023-01-17T05:58:13.384Z,1.00
2023-01-17T06:00:41.009Z,2.00
2023-01-17T06:03:08.791Z,2.80
2023-01-17T06:05:36.311Z,1.80
2023-01-17T06:08:04.573Z,3.70
2023-01-17T06:10:32.216Z,1.10
2023-01-17T06:13:08.546Z,3.00
2023-01-17T06:15:37.597Z,1.80
2023-01-17T06:18:11.153Z,2.50
2023-01-17T06:20:39.730Z,1.90
2023-01-17T06:23:10.363Z,1.30
2023-01-17T06:25:46.832Z,3.60
2023-01-17T06:28:17.434Z,1.90
2023-01-17T06:30:45.661Z,1.80
2023-01-17T06:33:14.401Z,3.40
2023-01-17T06:35:49.894Z,3.40
2023-01-17T06:38:17.635Z,2.30
2023-01-17T06:40:45.305Z,3.70
2023-01-17T06:43:27.052Z,3.60
2023-01-17T06:45:55.191Z,3.40
2023-01-17T06:48:22.656Z,2.60
2023-01-17T06:50:52.839Z,1.40
2023-01-17T06:53:20.414Z,-0.10
2023-01-17T06:55:47.968Z,1.70
2023-01-17T06:58:15.414Z,1.20
2023-01-17T07:00:42.998Z,3.00
2023-01-17T07:03:37.160Z,1.00
2023-01-17T07:06:05.564Z,-0.20
2023-01-17T07:08:33.282Z,1.90
2023-01-17T07:11:03.440Z,3.30
2023-01-17T07:13:36.223Z,3.10
2023-01-17T07:16:05.286Z,1.60
2023-01-17T07:18:35.035Z,1.60
2023-01-17T07:21:02.549Z,2.60
2023-01-17T07:23:30.132Z,2.70
2023-01-17T07:26:01.951Z,2.20
2023-01-17T07:28:29.446Z,2.10
2023-01-17T07:30:57.464Z,1.20
2023-01-17T07:33:25.095Z,1.20
2023-01-17T07:35:52.803Z,1.90
2023-01-17T07:38:20.392Z,1.00
2023-01-17T07:40:47.859Z,2.50
2023-01-17T07:43:18.954Z,1.50
2023-01-17T07:45:57.243Z,2.60
2023-01-17T07:48:25.277Z,2.30
2023-01-17T07:50:57.598Z,1.60
2023-01-17T07:53:27.463Z,3.50
2023-01-17T07:55:55.303Z,1.70
2023-01-17T07:58:23.360Z,2.40
2023-01-17T08:00:50.812Z,1.70
2023-01-17T08:03:18.596Z,2.20
2023-01-17T08:05:57.575Z,1.70
2023-01-17T08:08:25.246Z,1.40
2023-01-17T08:10:53.540Z,1.40
2023-01-17T08:13:22.200Z,1.80
2023-01-17T08:15:50.323Z,1.20
2023-01-17T08:18:18.448Z,1.70
2023-01-17T08:20:46.025Z,3.90
2023-01-17T08:23:14.181Z,1.50
2023-01-17T08:25:41.724Z,-0.20
2023-01-17T08:28:09.280Z,1.50
2023-01-17T08:30:36.753Z,2.00
2023-01-17T08:33:04.273Z,1.60
2023-01-17T08:35:35.504Z,3.60
2023-01-17T08:38:06.125Z,1.60
2023-01-17T08:40:33.638Z,3.50
2023-01-17T08:43:01.742Z,3.50
2023-01-17T08:45:29.373Z,3.00
2023-01-17T08:48:00.016Z,3.70
2023-01-17T08:50:27.613Z,1.60
2023-01-17T08:53:01.236Z,1.60
2023-01-17T08:55:29.200Z,2.80
2023-01-17T08:57:57.113Z,2.60
2023-01-17T09:00:27.183Z,3.00
2023-01-17T09:02:54.702Z,1.70
2023-01-17T09:05:22.372Z,3.00
2023-01-17T09:07:49.875Z,1.80
2023-01-17T09:10:19.678Z,1.70
2023-01-17T09:12:47.035Z,1.80
2023-01-17T09:15:17.787Z,1.80
2023-01-17T09:17:45.261Z,2.00
2023-01-17T09:20:12.918Z,2.00
2023-01-17T09:22:41.770Z,2.10
2023-01-17T09:25:09.374Z,2.20
2023-01-17T09:27:36.796Z,2.40
2023-01-17T09:30:05.356Z,3.10
2023-01-17T09:32:32.935Z,2.60
2023-01-17T09:35:01.037Z,3.50
2023-01-17T09:37:28.612Z,2.70
2023-01-17T09:39:56.165Z,2.70
2023-01-17T09:42:31.290Z,4.40
2023-01-17T09:44:59.836Z,4.90
2023-01-17T09:47:33.267Z,2.70
2023-01-17T09:50:34.380Z,4.70
2023-01-17T09:53:14.931Z,2.70
2023-01-17T09:56:03.759Z,4.40
2023-01-17T09:58:44.090Z,2.70
2023-01-17T10:01:26.819Z,2.70
2023-01-17T10:04:22.117Z,2.70
2023-01-17T10:07:06.442Z,2.80
2023-01-17T10:09:46.282Z,2.80
2023-01-17T10:12:47.813Z,2.50
2023-01-17T10:15:31.247Z,3.50
2023-01-17T10:18:29.568Z,2.90
2023-01-17T10:21:09.455Z,1.40
2023-01-17T10:24:04.195Z,3.00
2023-01-17T10:26:34.106Z,3.00
2023-01-17T10:29:05.071Z,3.70
2023-01-17T10:31:41.520Z,4.40
2023-01-17T10:34:43.599Z,3.10
2023-01-17T10:37:25.499Z,3.00
2023-01-17T10:39:56.295Z,3.00
2023-01-17T10:42:29.132Z,4.00
2023-01-17T10:45:05.818Z,3.10
2023-01-17T10:47:37.671Z,4.20
2023-01-17T10:50:05.713Z,3.20
2023-01-17T10:52:52.949Z,3.40
2023-01-17T10:55:45.195Z,3.30
2023-01-17T10:58:13.367Z,3.30
2023-01-17T11:01:10.683Z,3.40
2023-01-17T11:03:38.867Z,3.30
2023-01-17T11:06:23.920Z,4.60
2023-01-17T11:09:06.252Z,3.30
2023-01-17T11:11:36.300Z,3.30
2023-01-17T11:14:20.726Z,3.20
2023-01-17T11:17:06.028Z,3.20
2023-01-17T11:19:38.585Z,4.60
2023-01-17T11:22:07.547Z,5.20
2023-01-17T11:24:55.908Z,5.50
2023-01-17T11:27:29.204Z,3.10
2023-01-17T11:30:16.843Z,4.50
2023-01-17T11:32:55.368Z,3.10
2023-01-17T11:35:25.627Z,5.00
2023-01-17T11:37:57.493Z,2.50
2023-01-17T11:40:42.914Z,4.80
2023-01-17T11:43:15.954Z,1.20
2023-01-17T11:45:43.507Z,3.40
2023-01-17T11:48:14.126Z,3.70
2023-01-17T11:50:56.300Z,4.30
2023-01-17T11:53:38.335Z,7.10
2023-01-17T11:56:11.834Z,5.80
2023-01-17T11:58:45.933Z,6.00
2023-01-17T12:01:35.018Z,6.00
2023-01-17T12:04:27.374Z,6.40
2023-01-17T12:07:03.439Z,8.40
2023-01-17T12:09:33.599Z,7.30
2023-01-17T12:12:47.013Z,7.70
2023-01-17T12:15:30.139Z,7.90
2023-01-17T12:17:57.473Z,8.50
2023-01-17T12:20:48.457Z,8.60
2023-01-17T12:23:28.311Z,8.00
2023-01-17T12:26:20.615Z,8.00
2023-01-17T12:29:23.079Z,7.80
2023-01-17T12:32:06.011Z,7.30
2023-01-17T12:35:08.208Z,7.00
2023-01-17T12:37:41.734Z,6.50
2023-01-17T12:40:23.511Z,7.40
2023-01-17T12:43:01.366Z,6.00
2023-01-17T12:45:41.282Z,5.90
2023-01-17T12:48:34.308Z,5.80
2023-01-17T12:51:21.615Z,6.50
2023-01-17T12:53:56.530Z,6.70
2023-01-17T12:56:39.296Z,5.70
2023-01-17T12:59:32.437Z,5.90
2023-01-17T13:02:10.597Z,5.70
2023-01-17T13:04:59.112Z,5.80
2023-01-17T13:07:35.231Z,5.80
2023-01-17T13:10:31.077Z,6.00
2023-01-17T13:13:20.201Z,6.60
2023-01-17T13:15:51.647Z,7.30
2023-01-17T13:18:25.896Z,8.70
2023-01-17T13:21:12.937Z,7.00
2023-01-17T13:24:09.194Z,6.70
2023-01-17T13:27:04.045Z,8.80
2023-01-17T13:29:40.791Z,6.60
2023-01-17T13:32:14.209Z,7.90
2023-01-17T13:34:41.744Z,6.40
2023-01-17T13:37:09.182Z,6.10
2023-01-17T13:39:51.721Z,7.20
2023-01-17T13:42:50.861Z,5.80
2023-01-17T13:45:22.865Z,5.70
2023-01-17T13:47:50.613Z,5.50
2023-01-17T13:50:36.258Z,5.70
2023-01-17T13:53:28.681Z,5.40
2023-01-17T13:56:27.813Z,5.40
2023-01-17T13:58:58.488Z,5.30
2023-01-17T14:01:46.134Z,5.70
2023-01-17T14:04:15.140Z,5.20
2023-01-17T14:06:56.114Z,5.30
2023-01-17T14:09:28.574Z,5.00
2023-01-17T14:12:15.612Z,5.10
2023-01-17T14:14:52.167Z,5.30
2023-01-17T14:17:21.074Z,4.90
2023-01-17T14:20:08.872Z,4.90
2023-01-17T14:22:40.772Z,4.90
2023-01-17T14:25:17.534Z,5.40
2023-01-17T14:27:51.296Z,4.90
2023-01-17T14:30:24.886Z,4.80
2023-01-17T14:33:01.538Z,4.80
2023-01-17T14:35:34.403Z,6.20
2023-01-17T14:38:05.698Z,4.80
2023-01-17T14:40:38.311Z,4.30
2023-01-17T14:43:16.246Z,4.30
2023-01-17T14:45:45.503Z,5.40
2023-01-17T14:48:20.834Z,7.90
2023-01-17T14:50:52.135Z,4.40
2023-01-17T14:53:38.583Z,4.70
2023-01-17T14:56:16.590Z,4.60
2023-01-17T14:58:46.640Z,4.30
2023-01-17T15:01:20.557Z,4.20
2023-01-17T15:03:58.194Z,5.10
2023-01-17T15:06:39.051Z,4.30
2023-01-17T15:09:24.931Z,5.10
2023-01-17T15:11:54.332Z,4.90
2023-01-17T15:14:34.079Z,4.00
2023-01-17T15:17:25.297Z,5.90
2023-01-17T15:19:59.647Z,5.50
2023-01-17T15:22:29.800Z,3.90
2023-01-17T15:24:58.684Z,3.60
2023-01-17T15:27:27.116Z,3.40
2023-01-17T15:29:57.470Z,3.70
2023-01-17T15:32:31.339Z,5.90
2023-01-17T15:35:02.541Z,3.40
2023-01-17T15:37:31.441Z,5.40
2023-01-17T15:40:14.841Z,5.20
2023-01-17T15:42:44.169Z,3.80
2023-01-17T15:45:19.988Z,4.10
2023-01-17T15:47:48.957Z,3.60
2023-01-17T15:50:24.176Z,3.30
2023-01-17T15:52:54.349Z,4.10
2023-01-17T15:55:24.750Z,4.70
2023-01-17T15:57:52.229Z,3.00
2023-01-17T16:00:24.108Z,4.50
2023-01-17T16:02:56.130Z,3.30
2023-01-17T16:05:24.054Z,4.40
2023-01-17T16:07:56.179Z,3.10
2023-01-17T16:10:29.307Z,3.30
2023-01-17T16:12:56.841Z,2.90
2023-01-17T16:15:25.809Z,2.40
2023-01-17T16:18:01.659Z,2.50
2023-01-17T16:20:35.979Z,2.80
2023-01-17T16:23:04.035Z,2.80
2023-01-17T16:25:35.129Z,2.80
2023-01-17T16:28:03.614Z,2.80
2023-01-17T16:30:32.635Z,2.70
2023-01-17T16:33:03.144Z,4.20
2023-01-17T16:35:40.312Z,2.60
2023-01-17T16:38:13.009Z,3.70
2023-01-17T16:40:45.375Z,2.50
2023-01-17T16:43:18.161Z,2.50
2023-01-17T16:45:48.596Z,4.30
2023-01-17T16:48:19.059Z,2.50
2023-01-17T16:50:50.830Z,4.30
2023-01-17T16:53:24.867Z,2.50
2023-01-17T16:56:06.810Z,2.80
2023-01-17T16:58:35.682Z,2.90
2023-01-17T17:01:03.378Z,3.00
2023-01-17T17:03:33.839Z,2.70
2023-01-17T17:06:04.163Z,2.40
2023-01-17T17:08:34.299Z,2.90
2023-01-17T17:11:13.025Z,0.60
2023-01-17T17:13:44.597Z,2.70
2023-01-17T17:16:27.556Z,2.80
2023-01-17T17:18:59.238Z,0.50
2023-01-17T17:21:32.106Z,3.10
2023-01-17T17:24:12.805Z,4.40
2023-01-17T17:26:41.303Z,2.10
2023-01-17T17:29:14.877Z,1.90
2023-01-17T17:31:44.201Z,2.00
2023-01-17T17:34:13.131Z,3.80
2023-01-17T17:36:41.087Z,3.30
2023-01-17T17:39:13.497Z,3.30
2023-01-17T17:41:45.852Z,2.80
2023-01-17T17:44:13.634Z,2.00
2023-01-17T17:46:42.235Z,1.50
2023-01-17T17:49:10.963Z,1.80
2023-01-17T17:51:40.346Z,2.10
2023-01-17T17:54:14.001Z,1.30
2023-01-17T17:56:46.490Z,1.60
2023-01-17T17:59:18.270Z,1.50
2023-01-17T18:01:46.736Z,1.30
2023-01-17T18:04:16.184Z,1.50
2023-01-17T18:06:44.534Z,2.00
2023-01-17T18:09:13.396Z,3.00
2023-01-17T18:11:42.779Z,2.60
2023-01-17T18:14:15.315Z,2.20
2023-01-17T18:16:44.970Z,3.60
2023-01-17T18:19:21.119Z,4.10
2023-01-17T18:21:51.586Z,2.90
2023-01-17T18:24:21.925Z,1.00
2023-01-17T18:26:57.632Z,2.90
2023-01-17T18:29:26.574Z,1.40
2023-01-17T18:31:55.011Z,3.50
2023-01-17T18:34:26.967Z,2.90
2023-01-17T18:36:54.798Z,3.20
2023-01-17T18:39:25.353Z,3.80
2023-01-17T18:41:54.373Z,2.80
2023-01-17T18:44:23.904Z,3.70
2023-01-17T18:46:55.495Z,1.40
2023-01-17T18:49:23.200Z,1.10
2023-01-17T18:51:55.160Z,3.50
2023-01-17T18:54:22.877Z,0.50
2023-01-17T18:56:51.166Z,0.70
2023-01-17T18:59:19.084Z,2.60
2023-01-17T19:01:47.345Z,1.40
2023-01-17T19:04:20.181Z,2.50
2023-01-17T19:06:51.249Z,2.50
2023-01-17T19:09:21.680Z,2.00
2023-01-17T19:11:51.521Z,3.30
2023-01-17T19:14:19.373Z,2.70
2023-01-17T19:16:47.109Z,1.00
2023-01-17T19:19:15.889Z,3.70
2023-01-17T19:21:44.174Z,3.70
2023-01-17T19:24:15.155Z,1.00
2023-01-17T19:26:43.336Z,1.10
2023-01-17T19:29:12.373Z,3.40
2023-01-17T19:31:43.150Z,1.60
2023-01-17T19:34:20.038Z,3.10
2023-01-17T19:36:48.440Z,1.30
2023-01-17T19:39:18.118Z,2.10
2023-01-17T19:41:46.686Z,2.80
2023-01-17T19:44:15.671Z,1.10
2023-01-17T19:46:44.263Z,2.20
2023-01-17T19:49:12.278Z,2.40
2023-01-17T19:51:40.038Z,2.00
2023-01-17T19:54:08.571Z,1.10
2023-01-17T19:56:36.797Z,1.70
2023-01-17T19:59:07.308Z,1.00
2023-01-17T20:01:35.258Z,1.30
2023-01-17T20:04:04.706Z,1.80
2023-01-17T20:06:36.531Z,1.00
2023-01-17T20:09:06.083Z,2.30
2023-01-17T20:11:33.566Z,1.90
2023-01-17T20:14:02.698Z,1.10
2023-01-17T20:16:32.065Z,2.60
2023-01-17T20:19:00.323Z,1.10
2023-01-17T20:21:38.351Z,1.20
2023-01-17T20:24:06.437Z,1.10
2023-01-17T20:26:35.367Z,1.30
2023-01-17T20:29:10.256Z,2.70
2023-01-17T20:31:39.425Z,1.90
2023-01-17T20:34:08.555Z,1.10
2023-01-17T20:36:40.323Z,0.90
2023-01-17T20:39:13.421Z,1.20
2023-01-17T20:41:43.051Z,3.40
2023-01-17T20:44:14.915Z,-0.60
2023-01-17T20:46:43.270Z,0.20
2023-01-17T20:49:15.533Z,2.00
2023-01-17T20:51:44.454Z,2.10
2023-01-17T20:54:15.125Z,2.50
2023-01-17T20:56:43.483Z,1.20
2023-01-17T20:59:16.836Z,1.30
2023-01-17T21:01:45.382Z,1.20
2023-01-17T21:04:14.713Z,3.30
2023-01-17T21:06:43.805Z,1.20
2023-01-17T21:09:14.432Z,2.60
2023-01-17T21:11:42.301Z,2.60
2023-01-17T21:14:09.792Z,3.00
2023-01-17T21:16:37.428Z,2.70
2023-01-17T21:19:12.144Z,2.10
2023-01-17T21:21:39.997Z,4.40
2023-01-17T21:24:15.177Z,1.00
2023-01-17T21:26:48.766Z,1.70
2023-01-17T21:29:16.512Z,0.50
2023-01-17T21:31:45.227Z,1.00
2023-01-17T21:34:14.436Z,1.90
2023-01-17T21:36:43.212Z,2.10
2023-01-17T21:39:16.874Z,2.20
2023-01-17T21:41:48.066Z,1.00
2023-01-17T21:44:21.434Z,2.90
2023-01-17T21:46:53.623Z,1.30
2023-01-17T21:49:22.916Z,1.50
2023-01-17T21:51:53.261Z,2.10
2023-01-17T21:54:45.289Z,2.40
2023-01-17T21:57:33.739Z,1.40
2023-01-17T22:00:16.999Z,0.50
2023-01-17T22:02:48.822Z,1.00
2023-01-17T22:05:18.112Z,3.30
2023-01-17T22:08:04.129Z,1.30
2023-01-17T22:10:32.701Z,2.60
2023-01-17T22:13:02.891Z,-0.10
2023-01-17T22:15:31.925Z,1.10
2023-01-17T22:18:04.136Z,2.80
2023-01-17T22:20:36.636Z,1.00
2023-01-17T22:23:08.799Z,1.40
2023-01-17T22:25:48.599Z,1.30
2023-01-17T22:28:19.952Z,1.20
2023-01-17T22:30:49.825Z,3.50
2023-01-17T22:33:18.918Z,2.30
2023-01-17T22:35:48.902Z,3.90
2023-01-17T22:38:19.544Z,0.10
2023-01-17T22:40:49.465Z,1.00
2023-01-17T22:43:20.888Z,1.00
2023-01-17T22:45:50.410Z,3.30
2023-01-17T22:48:33.158Z,1.00
2023-01-17T22:51:09.015Z,3.20
2023-01-17T22:53:48.154Z,1.00
2023-01-17T22:56:41.372Z,3.40
2023-01-17T22:59:14.056Z,2.30
2023-01-17T23:01:41.812Z,2.40
2023-01-17T23:04:13.614Z,0.90
2023-01-17T23:06:44.217Z,1.10
2023-01-17T23:09:17.863Z,1.60
2023-01-17T23:11:55.344Z,2.40
2023-01-17T23:15:00.717Z,2.20
2023-01-17T23:17:50.518Z,0.80
2023-01-17T23:20:22.815Z,0.90
2023-01-17T23:23:01.811Z,0.80
2023-01-17T23:25:31.067Z,3.00
2023-01-17T23:28:21.742Z,-0.70
2023-01-17T23:31:03.791Z,0.70
2023-01-17T23:33:35.570Z,2.40
2023-01-17T23:36:03.332Z,2.90
2023-01-17T23:38:37.656Z,0.80
2023-01-17T23:41:27.787Z,1.00
2023-01-17T23:43:56.938Z,4.00
2023-01-17T23:46:25.759Z,1.80
2023-01-17T23:48:54.968Z,0.90
2023-01-17T23:51:22.976Z,0.50
2023-01-17T23:53:55.234Z,2.10
2023-01-17T23:56:26.057Z,2.20
2023-01-17T23:58:57.642Z,2.20
